Accueil
METAR-TAF:

METAR-TAF

Aéroports :

Benson, Angleterre

latitude: 51-37N, longitude: 001-05W, altitude: 63 m

Observation

Le bulletin a été fait il y a 1 heure et 20 minutes, à 15:50 UTC
Vent 20 kt de sud-est
Température 3°C
Humidité 100%
Pression 1002 hPa
Visibilité: 4000 m

METAR: EGUB 151550Z AUTO 13020KT 4000 // FEW007/// BKN050/// 03/03 Q1002

Heure: 17:10 (17:10 UTC)

Prévision

Le bulletin a été fait il y a 30 heures et 39 minutes, à 10:31 UTC
Prévision valable du 14 à 12 UTC au 14 à 18 UTC
Vent 4 kt de est/sud-est
Visibilité 10 km ou plus
Nuages épars à une hauteur de 3000 ft

TAF: EGUB 141031Z 1412/1418 12004KT 9999 SCT030

Observations et prévisions météorologiques de plus de 4000 aéroports (messages METAR et TAF).

Les stations disponibles sont représentées par des disques jaunes et rouges sur la carte.

Passer la souris dessus pour voir le nom de la station.

Cliquer dessus pour voir les observations et prévisions météorologiques.

Pour changer de carte: cliquez sur les boutons verts avec une croix noire pour zoomer, sur le bouton vert avec un tiret pour effectuer un zoom arrière, ou sur les flèches vertes pour les cartes adjacentes.


METAR-TAF: